Terminal Aerodrome Forecast
Issued by NWS Boston, MA

Home | Current Version | Previous Version | Text Only | Print | Product List | Glossary On
Versions: 1 2 3 4 5 6 7 8 9 10 11 12 13 14 15 16 17 18 19 20 21 22 23 24 25 26 27 28 29 30 31 32 33 34 35 36 37 38 39 40 41 42 43 44 45 46 47
000
FTUS41 KBOX 062334
TAFBOS
TAF
KBOS 062334Z 0700/0806 09012KT P6SM VCSH SCT015 BKN025
     FM070400 07007KT 5SM -DZ BR OVC008
     FM071000 07006KT 2SM -DZ BR OVC004
     FM071500 06008KT 3SM BR VCSH BKN008
     FM071900 07007KT P6SM VCSH BKN010
     FM080000 10006KT P6SM BKN008
     FM080300 16005KT P6SM BKN008=

USA.gov is the U.S. government's official web portal to all federal, state and local government web resources and services.